Time;durP1;ratioP1;P1;durP2;ratioP2;P2;SDS_P1;SDS_P2;PMS_P1;PMS_P2;Temp;Humidity;BMP_temperature;BMP_pressure;BME280_temperature;BME280_humidity;BME280_pressure;Samples;Min_cycle;Max_cycle;Signal;HPM_P1;HPM_P2
2022/10/04 00:01:11;;;;;;;11.63;6.03;;;12.80;73.30;;;;;;5051971;28;20435;-49
2022/10/04 00:03:45;;;;;;;18.27;7.50;;;12.90;72.80;;;;;;5052695;28;20476;-48
2022/10/04 00:06:23;;;;;;;8.50;6.90;;;13.10;72.60;;;;;;5051609;28;20422;-49
2022/10/04 00:09:18;;;;;;;7.20;6.40;;;13.40;72.00;;;;;;5052351;28;20439;-48
2022/10/04 00:11:46;;;;;;;8.23;6.33;;;13.60;70.80;;;;;;5047761;28;20475;-47
2022/10/04 00:14:18;;;;;;;7.30;6.27;;;13.70;69.90;;;;;;5047939;28;20852;-47
2022/10/04 00:16:44;;;;;;;6.70;5.60;;;13.70;69.00;;;;;;5052035;28;20427;-48
2022/10/04 00:19:18;;;;;;;6.77;6.13;;;13.60;68.80;;;;;;5051997;28;20508;-48
2022/10/04 00:21:51;;;;;;;22.70;6.23;;;13.60;69.10;;;;;;5050316;28;20525;-51
2022/10/04 00:24:25;;;;;;;8.20;6.40;;;13.50;69.10;;;;;;5052042;28;20530;-51
2022/10/04 00:26:50;;;;;;;6.30;5.70;;;13.50;69.30;;;;;;5051400;28;20479;-49
2022/10/04 00:29:42;;;;;;;30.73;6.60;;;13.50;69.00;;;;;;5052134;28;21104;-51
2022/10/04 00:32:11;;;;;;;15.03;6.00;;;13.50;68.20;;;;;;5036661;28;20250;-47
2022/10/04 00:34:51;;;;;;;13.23;6.43;;;13.40;68.70;;;;;;5051729;28;20431;-47
2022/10/04 00:37:18;;;;;;;11.20;5.77;;;13.30;68.70;;;;;;5051293;28;20443;-51
2022/10/04 00:40:10;;;;;;;5.57;5.07;;;12.90;70.10;;;;;;5034168;28;20474;-48
2022/10/04 00:42:38;;;;;;;31.67;6.67;;;13.00;71.20;;;;;;5031457;28;20510;-48
2022/10/04 00:45:28;;;;;;;35.23;6.60;;;13.00;69.70;;;;;;5031652;28;20486;-47
2022/10/04 00:48:08;;;;;;;9.57;5.67;;;12.80;71.20;;;;;;5029709;28;20958;-46
2022/10/04 00:50:40;;;;;;;6.63;5.50;;;13.00;71.00;;;;;;5032089;28;20459;-48
2022/10/04 00:53:40;;;;;;;6.37;5.73;;;13.20;70.20;;;;;;5031691;28;20429;-47
2022/10/04 00:56:13;;;;;;;7.33;5.17;;;13.30;69.50;;;;;;5030600;28;20436;-49
2022/10/04 00:59:04;;;;;;;10.47;5.80;;;13.40;69.10;;;;;;5046055;28;21242;-47
2022/10/04 01:01:34;;;;;;;7.43;5.07;;;13.40;68.60;;;;;;5051134;28;20436;-48
2022/10/04 01:04:02;;;;;;;12.13;6.10;;;13.50;68.30;;;;;;5051431;28;20427;-48
2022/10/04 01:06:28;;;;;;;8.13;5.57;;;13.00;67.80;;;;;;5050713;28;20490;-47
2022/10/04 01:09:01;;;;;;;5.53;4.70;;;12.80;70.10;;;;;;5051635;28;20860;-47
2022/10/04 01:11:37;;;;;;;9.17;5.10;;;12.90;70.30;;;;;;5050997;28;20431;-47
2022/10/04 01:14:12;;;;;;;40.33;6.43;;;13.10;69.70;;;;;;5036470;28;20418;-49
2022/10/04 01:16:38;;;;;;;31.83;6.10;;;13.00;68.70;;;;;;5050855;28;20783;-47
2022/10/04 01:19:25;;;;;;;36.53;7.20;;;12.70;69.50;;;;;;5051600;28;20438;-49
2022/10/04 01:22:22;;;;;;;11.37;5.00;;;12.40;71.00;;;;;;5050914;28;20729;-47
2022/10/04 01:24:48;;;;;;;10.93;5.27;;;12.20;73.20;;;;;;5023656;28;20489;-48
2022/10/04 01:27:36;;;;;;;13.43;5.77;;;12.40;73.10;;;;;;5050613;28;20897;-47
2022/10/04 01:30:08;;;;;;;11.50;5.80;;;12.30;72.30;;;;;;5055940;28;20269;-47
2022/10/04 01:32:34;;;;;;;29.37;5.33;;;12.60;72.30;;;;;;5045809;28;20450;-48
2022/10/04 01:34:59;;;;;;;5.27;4.87;;;12.70;71.50;;;;;;5030703;28;20440;-47
2022/10/04 01:37:25;;;;;;;5.40;4.90;;;12.80;71.00;;;;;;5039550;28;20234;-47
2022/10/04 01:39:51;;;;;;;24.13;5.27;;;12.90;70.50;;;;;;5032128;28;20189;-47
2022/10/04 01:42:25;;;;;;;50.60;7.40;;;13.10;69.10;;;;;;5029271;28;20507;-47
2022/10/04 01:44:59;;;;;;;10.33;4.90;;;13.00;68.00;;;;;;5037651;28;20655;-47
2022/10/04 01:47:35;;;;;;;19.57;5.37;;;12.60;69.30;;;;;;5050296;28;20482;-50
2022/10/04 01:50:07;;;;;;;18.30;5.10;;;12.80;69.40;;;;;;5051026;28;20906;-47
2022/10/04 01:52:39;;;;;;;8.97;5.10;;;12.90;69.30;;;;;;5050634;28;20433;-47
2022/10/04 01:55:12;;;;;;;7.20;4.70;;;12.90;68.60;;;;;;5050888;28;20449;-47
2022/10/04 01:57:44;;;;;;;31.60;6.40;;;13.00;68.70;;;;;;5048422;28;20455;-49
2022/10/04 02:00:12;;;;;;;10.00;4.60;;;13.00;68.40;;;;;;5049498;28;20445;-47
2022/10/04 02:02:52;;;;;;;5.13;4.67;;;13.00;68.40;;;;;;5031052;28;20436;-47
2022/10/04 02:05:32;;;;;;;8.37;4.40;;;13.00;68.20;;;;;;5030718;28;20478;-47
2022/10/04 02:08:03;;;;;;;8.73;4.73;;;12.90;67.50;;;;;;5028698;28;20578;-47
2022/10/04 02:10:32;;;;;;;23.03;4.90;;;13.00;67.90;;;;;;5030931;28;20906;-48
2022/10/04 02:12:58;;;;;;;7.73;4.73;;;12.90;68.00;;;;;;5043066;28;20455;-47
2022/10/04 02:15:26;;;;;;;8.00;4.80;;;12.80;68.20;;;;;;5050898;28;20415;-47
2022/10/04 02:17:54;;;;;;;5.00;4.60;;;12.90;67.70;;;;;;5050035;28;20510;-47
2022/10/04 02:20:24;;;;;;;8.57;4.20;;;12.90;67.40;;;;;;5050603;28;20498;-50
2022/10/04 02:22:58;;;;;;;15.60;4.93;;;12.90;67.00;;;;;;5050343;28;20473;-49
2022/10/04 02:25:25;;;;;;;5.93;4.87;;;12.60;67.90;;;;;;5050252;28;20442;-52
2022/10/04 02:27:52;;;;;;;7.63;4.40;;;12.60;68.60;;;;;;5049762;28;20852;-50
2022/10/04 02:30:18;;;;;;;4.60;4.20;;;12.60;68.30;;;;;;5057510;28;20820;-52
2022/10/04 02:33:17;;;;;;;21.57;5.70;;;12.70;68.10;;;;;;5042807;28;20428;-51
2022/10/04 02:35:45;;;;;;;11.40;4.80;;;12.40;67.40;;;;;;5026791;28;20205;-51
2022/10/04 02:38:24;;;;;;;9.63;5.17;;;12.30;69.60;;;;;;5041058;28;20437;-50
2022/10/04 02:40:58;;;;;;;13.93;4.60;;;12.30;69.00;;;;;;5030388;28;20452;-51
2022/10/04 02:43:36;;;;;;;6.90;4.50;;;12.50;68.60;;;;;;5038521;28;20922;-49
2022/10/04 02:46:12;;;;;;;4.53;4.03;;;12.60;68.30;;;;;;5049399;28;20805;-51
2022/10/04 02:48:52;;;;;;;7.07;4.53;;;12.70;68.10;;;;;;5050787;28;20501;-51
2022/10/04 02:51:35;;;;;;;5.43;4.70;;;12.90;67.60;;;;;;5053312;28;20509;-52
2022/10/04 02:54:16;;;;;;;7.63;4.60;;;13.00;67.10;;;;;;5053628;28;20861;-52
2022/10/04 02:56:42;;;;;;;13.03;5.23;;;13.00;66.50;;;;;;5053434;28;20438;-48
2022/10/04 02:59:15;;;;;;;5.03;4.63;;;12.90;66.70;;;;;;5049939;28;20446;-51
2022/10/04 03:01:54;;;;;;;4.80;4.27;;;12.90;67.00;;;;;;5051806;28;20435;-52
2022/10/04 03:04:26;;;;;;;5.03;4.23;;;13.00;66.70;;;;;;5053632;28;20427;-51
2022/10/04 03:06:54;;;;;;;6.10;5.00;;;13.00;66.50;;;;;;5052882;28;20489;-50
2022/10/04 03:09:22;;;;;;;32.53;5.67;;;13.10;66.00;;;;;;5053726;28;20411;-48
2022/10/04 03:11:49;;;;;;;33.87;6.00;;;13.20;65.60;;;;;;5053077;28;20427;-52
2022/10/04 03:14:21;;;;;;;20.57;5.27;;;13.20;65.30;;;;;;5053709;28;20431;-51
2022/10/04 03:16:50;;;;;;;12.70;4.60;;;13.10;65.10;;;;;;5053213;28;20443;-50
2022/10/04 03:19:17;;;;;;;23.23;5.50;;;13.00;65.20;;;;;;5053600;28;20434;-48
2022/10/04 03:21:45;;;;;;;6.10;4.43;;;12.80;65.90;;;;;;5052913;28;20439;-51
2022/10/04 03:24:19;;;;;;;5.33;4.40;;;12.80;66.60;;;;;;5053169;28;20549;-51
2022/10/04 03:26:52;;;;;;;13.07;4.57;;;12.70;66.50;;;;;;5052826;28;20876;-49
2022/10/04 03:29:20;;;;;;;12.57;4.17;;;12.60;67.10;;;;;;5051560;28;20502;-51
2022/10/04 03:31:49;;;;;;;27.77;6.50;;;12.50;67.20;;;;;;5060347;28;20455;-52
2022/10/04 03:34:21;;;;;;;44.57;6.10;;;12.50;67.10;;;;;;5033196;28;20420;-47
2022/10/04 03:36:49;;;;;;;12.80;4.23;;;12.50;67.10;;;;;;5037179;28;20423;-52
2022/10/04 03:39:26;;;;;;;58.27;6.67;;;12.50;67.20;;;;;;5038851;28;20442;-51
2022/10/04 03:41:52;;;;;;;11.40;4.70;;;12.60;67.00;;;;;;5032950;28;20482;-51
2022/10/04 03:44:19;;;;;;;4.87;4.40;;;12.50;67.00;;;;;;5032981;28;20428;-51
2022/10/04 03:46:46;;;;;;;5.03;4.60;;;12.60;67.10;;;;;;5032725;28;20493;-51
2022/10/04 03:49:17;;;;;;;11.43;4.53;;;12.80;67.30;;;;;;5033018;28;20511;-49
2022/10/04 03:51:47;;;;;;;7.50;4.50;;;12.90;67.90;;;;;;5032730;28;20873;-52
2022/10/04 03:54:17;;;;;;;4.83;4.37;;;13.00;66.60;;;;;;5030987;28;20506;-51
2022/10/04 03:56:44;;;;;;;4.77;4.30;;;13.00;66.30;;;;;;5032457;28;20486;-52
2022/10/04 03:59:15;;;;;;;24.40;6.10;;;13.10;66.20;;;;;;5033103;28;20452;-51
2022/10/04 04:02:00;;;;;;;6.57;4.07;;;13.10;65.70;;;;;;5046001;28;20446;-51
2022/10/04 04:04:55;;;;;;;11.07;5.00;;;12.90;65.50;;;;;;5045580;28;20428;-47
2022/10/04 04:07:35;;;;;;;22.63;5.90;;;13.00;65.50;;;;;;5023847;28;20487;-47
2022/10/04 04:10:32;;;;;;;9.87;4.57;;;13.00;65.30;;;;;;5032716;28;20435;-48
2022/10/04 04:12:58;;;;;;;7.00;5.20;;;13.10;65.20;;;;;;5031609;28;20431;-47
2022/10/04 04:15:29;;;;;;;17.70;5.20;;;13.10;65.00;;;;;;5051988;28;20433;-48
2022/10/04 04:17:57;;;;;;;10.70;4.60;;;13.10;64.90;;;;;;5051875;28;20665;-48
2022/10/04 04:20:30;;;;;;;31.20;5.57;;;13.00;64.80;;;;;;5052206;28;20432;-47
2022/10/04 04:23:01;;;;;;;30.40;5.23;;;12.90;64.90;;;;;;5050249;28;20466;-47
2022/10/04 04:25:31;;;;;;;28.60;5.40;;;12.70;64.90;;;;;;5051847;28;20436;-47
2022/10/04 04:28:04;;;;;;;20.33;5.30;;;12.40;65.40;;;;;;5051688;28;20501;-48
2022/10/04 04:30:32;;;;;;;6.07;4.67;;;11.90;68.00;;;;;;5060883;28;20568;-48
2022/10/04 04:33:06;;;;;;;17.43;4.67;;;11.70;69.20;;;;;;5040305;28;20427;-47
2022/10/04 04:35:35;;;;;;;5.07;4.67;;;11.80;70.60;;;;;;5031992;28;20432;-51
2022/10/04 04:38:22;;;;;;;12.20;5.60;;;12.00;69.70;;;;;;5041968;28;20938;-47
2022/10/04 04:40:48;;;;;;;18.20;5.00;;;12.20;68.10;;;;;;5031675;28;20515;-48
2022/10/04 04:43:18;;;;;;;23.47;4.93;;;12.10;68.40;;;;;;5031969;28;20469;-47
2022/10/04 04:45:48;;;;;;;18.33;4.73;;;12.00;68.00;;;;;;5031224;28;20423;-47
2022/10/04 04:48:15;;;;;;;7.20;4.03;;;12.10;68.20;;;;;;5030082;28;20486;-47
2022/10/04 04:50:41;;;;;;;4.23;3.83;;;12.10;67.50;;;;;;5031722;28;20424;-48
2022/10/04 04:53:30;;;;;;;12.33;3.97;;;12.20;67.70;;;;;;5031763;28;20430;-48
2022/10/04 04:55:59;;;;;;;4.77;4.30;;;12.20;66.90;;;;;;5022957;28;20231;-47
2022/10/04 04:58:31;;;;;;;7.80;4.20;;;12.30;66.80;;;;;;5031955;28;20471;-47
2022/10/04 05:01:07;;;;;;;4.40;4.03;;;12.30;66.30;;;;;;5032113;28;20443;-47
2022/10/04 05:03:33;;;;;;;5.77;3.80;;;12.40;66.10;;;;;;5051432;28;20445;-52
2022/10/04 05:06:03;;;;;;;8.33;3.87;;;12.40;65.60;;;;;;5030704;28;20439;-47
2022/10/04 05:08:31;;;;;;;6.10;3.87;;;12.30;65.70;;;;;;5031639;28;20448;-49
2022/10/04 05:11:08;;;;;;;4.97;4.57;;;12.30;65.80;;;;;;5030923;28;20432;-51
2022/10/04 05:13:46;;;;;;;12.20;4.50;;;12.40;65.50;;;;;;5048429;28;20429;-51
2022/10/04 05:16:30;;;;;;;5.77;4.00;;;12.30;65.50;;;;;;5049240;28;20439;-51
2022/10/04 05:19:00;;;;;;;4.90;4.40;;;12.10;65.80;;;;;;5051242;28;20484;-47
2022/10/04 05:21:29;;;;;;;51.90;6.90;;;12.10;66.30;;;;;;5050722;28;20556;-52
2022/10/04 05:23:57;;;;;;;21.27;5.10;;;12.00;66.20;;;;;;5050959;28;20934;-50
2022/10/04 05:26:28;;;;;;;4.83;4.43;;;12.00;67.10;;;;;;5050839;28;20494;-48
2022/10/04 05:28:58;;;;;;;5.33;4.83;;;12.10;67.40;;;;;;5051480;28;20965;-51
2022/10/04 05:31:41;;;;;;;19.80;5.80;;;12.30;67.10;;;;;;5061119;28;20509;-51
2022/10/04 05:34:29;;;;;;;5.23;4.37;;;12.40;66.20;;;;;;5030948;28;20424;-47
2022/10/04 05:37:21;;;;;;;6.47;4.10;;;12.50;66.00;;;;;;5038407;28;20958;-51
2022/10/04 05:40:04;;;;;;;7.80;4.20;;;12.60;65.50;;;;;;5032820;28;20781;-51
2022/10/04 05:42:37;;;;;;;9.03;5.00;;;12.50;65.00;;;;;;5029090;28;20530;-52
2022/10/04 05:45:23;;;;;;;11.70;5.90;;;12.50;65.20;;;;;;5030976;28;20912;-52
2022/10/04 05:47:57;;;;;;;7.83;4.47;;;12.50;65.10;;;;;;5030252;28;20491;-51
2022/10/04 05:50:40;;;;;;;4.30;3.90;;;12.40;65.20;;;;;;5030919;28;20439;-50
2022/10/04 05:53:22;;;;;;;5.27;4.63;;;12.40;65.30;;;;;;5030805;28;20801;-50
2022/10/04 05:55:54;;;;;;;10.10;4.90;;;12.40;65.30;;;;;;5029839;28;21093;-50
2022/10/04 05:58:47;;;;;;;4.70;4.30;;;12.30;65.70;;;;;;5030893;28;20428;-51
2022/10/04 06:01:21;;;;;;;13.17;4.90;;;12.30;66.20;;;;;;5030547;28;20466;-51
2022/10/04 06:04:16;;;;;;;22.77;4.70;;;12.40;65.80;;;;;;5045989;28;20561;-48
2022/10/04 06:07:02;;;;;;;39.90;6.33;;;12.40;65.70;;;;;;4978706;28;20525;-50
2022/10/04 06:09:53;;;;;;;5.20;4.70;;;12.30;65.60;;;;;;5049206;28;20843;-51
2022/10/04 06:12:29;;;;;;;5.20;4.33;;;11.70;67.70;;;;;;5049957;28;20522;-51
2022/10/04 06:15:04;;;;;;;4.80;4.40;;;11.90;68.50;;;;;;5050305;28;20427;-49
2022/10/04 06:17:40;;;;;;;5.37;4.80;;;12.00;68.30;;;;;;5050416;28;20431;-51
2022/10/04 06:20:12;;;;;;;7.27;5.33;;;12.10;68.20;;;;;;5050805;28;20426;-47
2022/10/04 06:22:45;;;;;;;10.97;6.20;;;12.30;67.90;;;;;;5050290;28;20427;-49
2022/10/04 06:25:51;;;;;;;7.53;5.10;;;12.40;67.40;;;;;;5053536;28;20478;-51
2022/10/04 06:28:27;;;;;;;10.00;5.27;;;12.60;67.20;;;;;;5050306;28;20513;-51
2022/10/04 06:31:31;;;;;;;9.83;5.03;;;12.50;66.50;;;;;;5065743;28;20433;-50
2022/10/04 06:34:04;;;;;;;5.97;5.13;;;12.50;66.40;;;;;;5043327;28;20830;-51
2022/10/04 06:36:47;;;;;;;7.50;6.30;;;12.50;66.50;;;;;;5033987;28;20424;-52
2022/10/04 06:39:25;;;;;;;5.67;4.90;;;12.60;66.80;;;;;;5040458;28;20459;-50
2022/10/04 06:42:04;;;;;;;5.07;4.57;;;12.80;66.40;;;;;;5033804;28;20801;-51
2022/10/04 06:44:35;;;;;;;5.00;4.50;;;12.80;65.80;;;;;;5033928;28;20434;-51
2022/10/04 06:47:32;;;;;;;6.70;4.63;;;12.90;65.70;;;;;;5033576;28;20557;-51
2022/10/04 06:50:32;;;;;;;4.50;4.20;;;13.00;65.50;;;;;;5034195;28;20454;-51
2022/10/04 06:53:15;;;;;;;9.90;6.00;;;13.00;65.30;;;;;;5040115;28;20450;-51
2022/10/04 06:56:22;;;;;;;5.07;4.60;;;13.00;65.80;;;;;;5053371;28;20909;-52
2022/10/04 06:59:13;;;;;;;5.07;4.67;;;13.00;65.30;;;;;;5053563;28;20518;-51
2022/10/04 07:01:56;;;;;;;5.03;4.53;;;13.20;65.40;;;;;;5051713;28;20441;-51
2022/10/04 07:04:41;;;;;;;10.53;4.50;;;13.10;65.30;;;;;;5049272;28;20497;-52
2022/10/04 07:07:26;;;;;;;4.43;4.13;;;13.20;65.40;;;;;;5036623;28;20618;-51
2022/10/04 07:10:15;;;;;;;4.33;4.00;;;13.30;65.40;;;;;;5033934;28;20451;-51
2022/10/04 07:12:46;;;;;;;4.83;4.20;;;13.30;65.10;;;;;;5043198;28;20968;-47
2022/10/04 07:15:25;;;;;;;4.50;4.17;;;13.40;65.80;;;;;;5053215;28;20825;-47
2022/10/04 07:17:52;;;;;;;4.60;4.20;;;13.50;64.90;;;;;;5052768;28;20451;-47
2022/10/04 07:20:33;;;;;;;5.43;4.53;;;13.60;64.60;;;;;;5053739;28;20431;-47
2022/10/04 07:23:38;;;;;;;6.07;4.17;;;13.70;64.90;;;;;;5052999;28;20958;-48
2022/10/04 07:26:21;;;;;;;8.63;5.00;;;13.60;65.20;;;;;;4972000;28;20451;-47
2022/10/04 07:31:35;;;;;;;4.40;4.10;;;13.70;65.40;;;;;;5062589;28;20482;-47
2022/10/04 07:34:22;;;;;;;4.83;4.30;;;13.70;65.50;;;;;;5033155;28;20900;-47
2022/10/04 07:36:51;;;;;;;5.70;5.10;;;13.60;65.20;;;;;;5037935;28;20818;-46
2022/10/04 07:39:39;;;;;;;6.30;5.30;;;13.60;65.90;;;;;;5039353;28;20487;-47
2022/10/04 07:42:30;;;;;;;7.57;6.70;;;13.60;66.00;;;;;;5032861;28;20474;-47
2022/10/04 07:45:04;;;;;;;6.97;5.83;;;13.60;66.20;;;;;;5033002;28;20424;-46
2022/10/04 07:47:31;;;;;;;6.10;5.50;;;13.50;66.50;;;;;;5032444;28;20483;-47
2022/10/04 07:49:57;;;;;;;5.80;5.20;;;13.50;66.30;;;;;;5032949;28;20424;-47
2022/10/04 07:52:25;;;;;;;5.43;4.93;;;13.50;67.30;;;;;;5032682;28;20430;-47
2022/10/04 07:54:56;;;;;;;5.30;4.80;;;13.60;67.50;;;;;;5031159;28;20785;-47
2022/10/04 07:57:47;;;;;;;5.20;4.80;;;13.60;67.20;;;;;;5032233;28;20420;-48
2022/10/04 08:00:23;;;;;;;6.10;5.10;;;13.70;67.10;;;;;;5050502;28;20443;-46
2022/10/04 08:03:10;;;;;;;7.37;5.20;;;13.70;67.90;;;;;;5044889;28;20435;-47
2022/10/04 08:05:41;;;;;;;5.60;5.10;;;13.50;68.50;;;;;;5032472;28;20497;-47
2022/10/04 08:08:07;;;;;;;6.90;5.47;;;13.10;69.60;;;;;;5032498;28;20543;-47
2022/10/04 08:10:55;;;;;;;6.93;6.23;;;13.40;70.90;;;;;;5032644;28;20456;-47
2022/10/04 08:13:29;;;;;;;7.73;6.37;;;13.80;70.40;;;;;;5048338;28;20520;-49
2022/10/04 08:16:01;;;;;;;6.90;6.10;;;14.00;69.20;;;;;;5052099;28;20976;-47
2022/10/04 08:18:42;;;;;;;5.57;5.07;;;14.20;68.20;;;;;;5052377;28;20447;-47
2022/10/04 08:21:13;;;;;;;5.70;5.20;;;14.20;66.80;;;;;;5050986;28;20434;-49
2022/10/04 08:23:47;;;;;;;9.10;5.07;;;14.10;68.60;;;;;;5051639;28;20463;-50
2022/10/04 08:26:28;;;;;;;6.00;5.40;;;14.30;68.80;;;;;;5051733;28;20434;-47
2022/10/04 08:32:12;;;;;;;7.53;6.30;;;14.50;68.20;;;;;;5039570;28;20462;-47
2022/10/04 08:35:02;;;;;;;5.27;4.80;;;14.70;67.60;;;;;;5051852;28;20427;-47
2022/10/04 08:37:47;;;;;;;9.43;5.63;;;14.70;66.80;;;;;;5051476;28;20469;-47
2022/10/04 08:40:38;;;;;;;6.53;5.23;;;14.90;66.60;;;;;;5043730;28;20481;-47
2022/10/04 08:43:18;;;;;;;5.80;4.60;;;15.10;65.50;;;;;;5031732;28;20442;-47
2022/10/04 08:45:59;;;;;;;9.30;6.47;;;15.20;65.50;;;;;;5031423;28;20431;-52
2022/10/04 08:48:27;;;;;;;4.90;4.17;;;15.40;65.90;;;;;;5030339;28;20532;-47
2022/10/04 08:51:14;;;;;;;5.00;4.10;;;15.70;65.50;;;;;;5031341;28;20440;-48
2022/10/04 08:54:22;;;;;;;6.00;4.07;;;15.90;65.10;;;;;;5031600;28;20446;-51
2022/10/04 08:56:50;;;;;;;3.63;3.33;;;16.10;64.30;;;;;;5042735;28;20438;-52
2022/10/04 08:59:48;;;;;;;3.93;3.63;;;16.30;63.50;;;;;;5048169;28;20972;-50
2022/10/04 09:02:34;;;;;;;4.40;3.40;;;16.40;63.60;;;;;;5051290;28;20454;-51
2022/10/04 09:05:26;;;;;;;4.30;3.73;;;16.60;62.10;;;;;;5051486;28;20439;-50
2022/10/04 09:08:05;;;;;;;5.17;3.37;;;16.90;62.20;;;;;;5032947;28;20845;-52
2022/10/04 09:10:57;;;;;;;3.30;3.00;;;17.20;61.00;;;;;;5051416;28;20930;-50
2022/10/04 09:13:56;;;;;;;3.87;3.47;;;17.40;60.40;;;;;;5051011;28;20443;-48
2022/10/04 09:16:47;;;;;;;7.83;3.50;;;17.60;59.40;;;;;;5049309;28;20450;-49
2022/10/04 09:19:20;;;;;;;5.23;3.60;;;17.70;58.30;;;;;;5051217;28;20443;-47
2022/10/04 09:21:46;;;;;;;4.97;3.30;;;17.60;58.20;;;;;;5050952;28;20435;-50
2022/10/04 09:24:43;;;;;;;5.10;3.47;;;17.70;58.40;;;;;;5051010;28;20431;-49
2022/10/04 09:27:27;;;;;;;4.10;3.73;;;18.00;57.70;;;;;;5050678;28;20534;-49
2022/10/04 09:30:42;;;;;;;4.37;2.90;;;18.10;57.20;;;;;;5054472;28;20810;-49
2022/10/04 09:33:26;;;;;;;4.90;3.47;;;18.30;56.50;;;;;;5032009;28;20435;-48
2022/10/04 09:36:16;;;;;;;3.93;3.07;;;18.40;56.70;;;;;;5030933;28;20835;-48
2022/10/04 09:38:53;;;;;;;5.83;3.30;;;18.60;56.30;;;;;;5041595;28;20440;-48
2022/10/04 09:41:46;;;;;;;4.37;3.57;;;18.80;55.90;;;;;;5029054;28;20914;-49
2022/10/04 09:44:44;;;;;;;3.67;3.30;;;18.90;55.10;;;;;;5030790;28;20436;-47
2022/10/04 09:47:30;;;;;;;8.13;3.40;;;18.80;55.10;;;;;;5030345;28;20502;-50
2022/10/04 09:50:17;;;;;;;5.60;3.47;;;18.90;55.70;;;;;;5047422;28;20435;-49
2022/10/04 09:52:48;;;;;;;4.33;3.80;;;19.00;55.70;;;;;;5032931;28;20515;-47
2022/10/04 09:55:40;;;;;;;3.87;2.83;;;19.20;55.20;;;;;;5030827;28;20428;-49
2022/10/04 09:58:52;;;;;;;7.73;3.77;;;19.40;54.90;;;;;;5009185;28;20439;-49
2022/10/04 10:01:27;;;;;;;7.20;3.10;;;19.50;54.70;;;;;;5050465;28;20447;-50
2022/10/04 10:04:19;;;;;;;6.00;2.97;;;19.60;54.30;;;;;;5038506;28;20440;-50
2022/10/04 10:06:58;;;;;;;3.40;2.63;;;19.80;53.70;;;;;;5034662;28;20471;-48
2022/10/04 10:15:38;;;;;;;5.43;3.30;;;20.30;53.30;;;;;;5054545;28;20469;-49
2022/10/04 10:18:13;;;;;;;4.30;2.90;;;20.40;52.60;;;;;;5054254;28;20450;-48
2022/10/04 10:20:57;;;;;;;7.63;3.23;;;20.40;52.50;;;;;;5054383;28;21068;-48
2022/10/04 10:23:42;;;;;;;4.53;2.93;;;20.70;52.20;;;;;;5054212;28;20489;-49
2022/10/04 10:26:23;;;;;;;6.13;2.50;;;20.80;52.10;;;;;;5054065;28;20438;-48
2022/10/04 10:29:10;;;;;;;7.40;3.00;;;20.80;51.90;;;;;;5054606;28;20839;-49
2022/10/04 10:31:50;;;;;;;4.03;2.77;;;21.10;52.60;;;;;;5063016;28;20443;-48
2022/10/04 10:34:36;;;;;;;4.87;2.90;;;21.30;51.60;;;;;;5034374;28;20432;-49
2022/10/04 10:37:14;;;;;;;3.37;3.00;;;21.60;50.60;;;;;;5039491;28;20434;-48
2022/10/04 10:40:03;;;;;;;4.83;2.60;;;21.70;51.50;;;;;;5037295;28;21021;-48
2022/10/04 10:43:00;;;;;;;4.10;2.80;;;21.80;51.50;;;;;;5033676;28;20451;-48
2022/10/04 10:45:44;;;;;;;4.67;2.50;;;22.00;50.40;;;;;;5033944;28;20443;-48
2022/10/04 10:48:18;;;;;;;2.97;2.50;;;22.10;51.50;;;;;;5041221;28;20501;-49
2022/10/04 10:51:02;;;;;;;3.50;2.80;;;22.40;51.00;;;;;;5053578;28;20467;-48
2022/10/04 10:53:30;;;;;;;3.37;2.43;;;22.60;49.70;;;;;;5053844;28;20440;-48
2022/10/04 10:56:40;;;;;;;6.10;2.70;;;22.80;50.30;;;;;;5053169;28;20865;-49
2022/10/04 10:59:49;;;;;;;3.80;2.40;;;22.90;48.40;;;;;;5054078;28;20534;-50
2022/10/04 11:02:35;;;;;;;5.03;1.90;;;23.00;48.00;;;;;;4966837;28;20451;-50
2022/10/04 11:05:42;;;;;;;2.90;2.60;;;23.00;46.90;;;;;;5035975;28;20446;-51
2022/10/04 11:08:28;;;;;;;4.70;2.07;;;23.10;47.10;;;;;;5025639;28;20542;-49
2022/10/04 11:11:02;;;;;;;4.37;2.70;;;23.10;48.10;;;;;;5032037;28;20444;-49
2022/10/04 11:13:47;;;;;;;5.50;2.50;;;23.20;48.20;;;;;;5049702;28;20527;-51
2022/10/04 11:16:50;;;;;;;5.03;2.77;;;23.20;46.40;;;;;;5053200;28;20439;-52
2022/10/04 11:19:34;;;;;;;3.53;1.93;;;23.20;46.00;;;;;;5053922;28;20763;-51
2022/10/04 11:22:19;;;;;;;5.53;2.53;;;23.40;47.10;;;;;;5053114;28;20818;-50
2022/10/04 11:25:06;;;;;;;3.50;2.07;;;23.60;47.50;;;;;;5053462;28;20522;-51
2022/10/04 11:27:52;;;;;;;3.17;1.90;;;24.00;47.00;;;;;;5052837;28;20783;-52
2022/10/04 11:30:38;;;;;;;5.27;2.37;;;24.10;46.00;;;;;;5058957;28;20464;-48
2022/10/04 11:33:16;;;;;;;6.40;2.67;;;24.30;44.30;;;;;;5040016;28;20416;-50
2022/10/04 11:36:09;;;;;;;3.47;2.50;;;24.40;44.50;;;;;;5032909;28;20440;-53
2022/10/04 11:39:10;;;;;;;4.20;2.40;;;24.50;43.20;;;;;;5044393;28;20450;-51
2022/10/04 11:41:51;;;;;;;2.33;2.13;;;24.50;43.70;;;;;;5029522;28;20452;-51
2022/10/04 11:44:31;;;;;;;3.67;2.10;;;24.60;43.70;;;;;;5032702;28;20428;-50
2022/10/04 11:47:23;;;;;;;2.40;2.20;;;24.80;43.60;;;;;;5032948;28;20491;-51
2022/10/04 11:50:14;;;;;;;4.63;2.07;;;24.80;42.90;;;;;;5035171;28;20807;-49
2022/10/04 11:53:20;;;;;;;3.00;1.80;;;24.80;43.90;;;;;;5046116;28;20923;-49
2022/10/04 11:56:04;;;;;;;6.00;2.00;;;25.10;43.40;;;;;;4932377;29;20472;-53
2022/10/04 11:58:32;;;;;;;2.40;1.90;;;25.20;42.40;;;;;;4931429;29;20705;-50
2022/10/04 12:01:15;;;;;;;3.37;1.93;;;25.20;42.80;;;;;;5001619;28;21049;-52
2022/10/04 12:04:19;;;;;;;3.77;1.70;;;25.40;42.40;;;;;;5048365;28;20458;-53
2022/10/04 12:07:09;;;;;;;7.33;2.00;;;25.50;43.40;;;;;;5041740;28;20478;-51
2022/10/04 12:10:12;;;;;;;3.00;1.97;;;25.50;42.10;;;;;;5041095;28;20455;-53
2022/10/04 12:13:13;;;;;;;2.40;2.03;;;25.60;42.30;;;;;;5034218;28;20811;-51
2022/10/04 12:16:03;;;;;;;2.63;2.40;;;25.70;41.30;;;;;;5018196;28;20879;-52
2022/10/04 12:19:01;;;;;;;3.23;1.80;;;25.80;43.30;;;;;;5036866;28;20485;-51
2022/10/04 12:21:52;;;;;;;2.30;2.10;;;25.80;42.10;;;;;;5046964;28;20458;-49
2022/10/04 12:24:31;;;;;;;4.03;2.23;;;25.90;42.30;;;;;;5043759;28;20451;-49
2022/10/04 12:27:03;;;;;;;4.90;2.10;;;26.10;41.90;;;;;;5045380;28;20524;-50
2022/10/04 12:29:52;;;;;;;4.97;2.63;;;26.30;42.20;;;;;;5052199;28;20471;-49
2022/10/04 12:32:43;;;;;;;2.30;2.10;;;26.40;41.90;;;;;;5043540;28;20490;-51
2022/10/04 12:35:36;;;;;;;4.27;1.90;;;26.50;41.90;;;;;;5047697;28;20454;-49
2022/10/04 12:38:26;;;;;;;3.00;2.43;;;26.60;41.70;;;;;;5045016;28;20406;-51
2022/10/04 12:41:10;;;;;;;3.47;2.13;;;26.40;41.40;;;;;;5042013;28;20491;-49
2022/10/04 12:43:59;;;;;;;5.10;2.23;;;26.30;41.70;;;;;;5049194;28;20421;-50
2022/10/04 12:46:41;;;;;;;4.87;2.13;;;26.00;42.70;;;;;;5027082;28;20462;-47
2022/10/04 12:49:28;;;;;;;6.67;2.23;;;26.30;41.80;;;;;;5049761;28;20548;-48
2022/10/04 12:52:08;;;;;;;2.90;2.00;;;26.40;41.30;;;;;;5041204;28;20508;-48
2022/10/04 12:54:46;;;;;;;2.37;2.00;;;26.50;42.10;;;;;;5048788;28;20993;-47
2022/10/04 12:57:50;;;;;;;2.13;1.70;;;26.50;42.60;;;;;;5044234;28;21102;-48
2022/10/04 13:00:19;;;;;;;4.23;2.20;;;26.60;40.60;;;;;;5011036;28;20443;-48
2022/10/04 13:02:53;;;;;;;4.53;2.17;;;26.60;41.60;;;;;;5042873;28;20421;-51
2022/10/04 13:05:54;;;;;;;2.70;2.10;;;26.70;41.50;;;;;;5042136;28;20459;-48
2022/10/04 13:08:59;;;;;;;3.30;2.03;;;26.90;41.80;;;;;;5043871;28;20583;-49
2022/10/04 13:12:01;;;;;;;3.40;1.80;;;27.00;41.50;;;;;;5047152;28;20471;-50
2022/10/04 13:14:48;;;;;;;2.10;1.90;;;27.30;41.40;;;;;;5046639;28;20444;-46
2022/10/04 13:17:31;;;;;;;5.10;2.20;;;27.50;40.50;;;;;;5048766;28;20449;-47
2022/10/04 13:20:10;;;;;;;3.03;1.93;;;27.70;40.40;;;;;;5031446;28;20451;-48
2022/10/04 13:23:02;;;;;;;2.30;2.10;;;27.70;39.20;;;;;;5042405;28;20965;-46
2022/10/04 13:25:40;;;;;;;3.90;2.10;;;27.50;39.50;;;;;;5041522;28;20471;-47
2022/10/04 13:28:46;;;;;;;2.20;2.00;;;27.60;40.10;;;;;;5046136;28;20487;-50
2022/10/04 13:31:23;;;;;;;2.70;2.30;;;27.60;40.20;;;;;;5040638;28;20443;-46
2022/10/04 13:34:08;;;;;;;3.77;2.30;;;27.70;39.60;;;;;;5040384;28;20490;-49
2022/10/04 13:36:55;;;;;;;2.57;2.00;;;27.80;39.50;;;;;;5045787;28;20446;-47
2022/10/04 13:39:32;;;;;;;3.53;2.30;;;27.90;39.90;;;;;;5046434;28;20474;-47
2022/10/04 13:42:35;;;;;;;2.50;1.90;;;28.00;39.80;;;;;;5039441;28;20459;-50
2022/10/04 13:45:25;;;;;;;3.60;1.90;;;28.00;39.60;;;;;;5047922;28;21020;-47
2022/10/04 13:48:24;;;;;;;3.60;1.97;;;28.20;40.40;;;;;;5048041;28;20479;-49
2022/10/04 13:50:53;;;;;;;3.13;1.87;;;28.30;39.90;;;;;;5002570;28;20467;-51
2022/10/04 13:56:35;;;;;;;2.17;1.90;;;28.30;39.00;;;;;;5051034;28;21033;-49
2022/10/04 13:59:38;;;;;;;2.33;1.90;;;28.50;39.10;;;;;;5047442;28;20453;-51
2022/10/04 14:02:28;;;;;;;4.60;2.00;;;28.60;39.40;;;;;;5043957;28;20449;-51
2022/10/04 14:05:18;;;;;;;2.37;2.00;;;28.70;38.40;;;;;;5043453;28;20447;-50
2022/10/04 14:08:05;;;;;;;3.37;2.23;;;28.80;37.60;;;;;;5047429;28;20569;-49